Monte Caseros, Argentina
Current Conditions -  °F | °C
As of 6:00 PM on Sunday 21 Dec 2014 (Local Time) from SBUG Reporting Station
Broken Clouds Broken Clouds  
Wind Chill: 70°   Ceiling: 2700
Heat Index: 70°   Visibility: 6mi
Dew Point: 61°   Wind: 14mph
Humidity: 73%   Direction: 190°S
Pressure: 29.68"   Gusts: NA
Location:  30.25°S, 57.63°W
Report Text: SBUG 212100Z 19012KT 9999 BKN027 BKN077 21/16 Q1005
Loading
Personal Weather Stations






























Interactive Weather Map New forecast layout! Learn more

10-Day Weather Forecast

Advertisements
Track Severe Weather on mobile